sensor_id;sensor_type;location;lat;lon;timestamp;P1;durP1;ratioP1;P2;durP2;ratioP2
16326;SDS011;34812;49.846;9.610;2024-02-16T00:03:58;4.33;;;2.53;;
16326;SDS011;34812;49.846;9.610;2024-02-16T00:09:00;6.37;;;3.70;;
16326;SDS011;34812;49.846;9.610;2024-02-16T00:14:02;5.93;;;2.97;;
16326;SDS011;34812;49.846;9.610;2024-02-16T00:19:06;9.57;;;3.90;;
16326;SDS011;34812;49.846;9.610;2024-02-16T00:24:08;7.87;;;3.90;;
16326;SDS011;34812;49.846;9.610;2024-02-16T00:29:10;5.30;;;3.73;;
16326;SDS011;34812;49.846;9.610;2024-02-16T00:34:13;4.73;;;3.10;;
16326;SDS011;34812;49.846;9.610;2024-02-16T00:39:15;4.80;;;3.40;;
16326;SDS011;34812;49.846;9.610;2024-02-16T00:44:18;5.27;;;3.20;;
16326;SDS011;34812;49.846;9.610;2024-02-16T00:49:21;6.60;;;3.77;;
16326;SDS011;34812;49.846;9.610;2024-02-16T00:54:23;4.70;;;2.90;;
16326;SDS011;34812;49.846;9.610;2024-02-16T00:59:26;5.90;;;2.50;;
16326;SDS011;34812;49.846;9.610;2024-02-16T01:04:29;4.00;;;2.80;;
16326;SDS011;34812;49.846;9.610;2024-02-16T01:09:31;7.37;;;3.10;;
16326;SDS011;34812;49.846;9.610;2024-02-16T01:14:33;3.80;;;2.93;;
16326;SDS011;34812;49.846;9.610;2024-02-16T01:19:37;3.43;;;3.00;;
16326;SDS011;34812;49.846;9.610;2024-02-16T01:24:40;4.10;;;2.03;;
16326;SDS011;34812;49.846;9.610;2024-02-16T01:29:42;5.33;;;3.57;;
16326;SDS011;34812;49.846;9.610;2024-02-16T01:34:46;12.17;;;5.37;;
16326;SDS011;34812;49.846;9.610;2024-02-16T01:39:50;9.43;;;5.57;;
16326;SDS011;34812;49.846;9.610;2024-02-16T01:44:52;10.73;;;4.13;;
16326;SDS011;34812;49.846;9.610;2024-02-16T01:49:56;3.37;;;2.57;;
16326;SDS011;34812;49.846;9.610;2024-02-16T01:54:58;7.17;;;3.90;;
16326;SDS011;34812;49.846;9.610;2024-02-16T02:00:03;6.03;;;3.33;;
16326;SDS011;34812;49.846;9.610;2024-02-16T02:23:21;10.97;;;2.97;;
16326;SDS011;34812;49.846;9.610;2024-02-16T02:28:23;7.77;;;2.70;;
16326;SDS011;34812;49.846;9.610;2024-02-16T02:33:25;5.23;;;2.90;;
16326;SDS011;34812;49.846;9.610;2024-02-16T02:38:29;3.40;;;2.53;;
16326;SDS011;34812;49.846;9.610;2024-02-16T02:43:31;6.00;;;2.80;;
16326;SDS011;34812;49.846;9.610;2024-02-16T02:48:33;5.40;;;2.27;;
16326;SDS011;34812;49.846;9.610;2024-02-16T02:53:37;3.60;;;2.43;;
16326;SDS011;34812;49.846;9.610;2024-02-16T02:58:39;2.70;;;2.20;;
16326;SDS011;34812;49.846;9.610;2024-02-16T03:03:41;3.60;;;2.97;;
16326;SDS011;34812;49.846;9.610;2024-02-16T03:08:45;6.17;;;2.73;;
16326;SDS011;34812;49.846;9.610;2024-02-16T03:13:47;6.77;;;2.57;;
16326;SDS011;34812;49.846;9.610;2024-02-16T03:18:49;7.20;;;2.13;;
16326;SDS011;34812;49.846;9.610;2024-02-16T03:23:52;3.20;;;2.33;;
16326;SDS011;34812;49.846;9.610;2024-02-16T03:28:54;3.27;;;2.30;;
16326;SDS011;34812;49.846;9.610;2024-02-16T03:33:57;3.03;;;2.27;;
16326;SDS011;34812;49.846;9.610;2024-02-16T03:39:00;3.63;;;2.20;;
16326;SDS011;34812;49.846;9.610;2024-02-16T03:44:02;3.33;;;2.20;;
16326;SDS011;34812;49.846;9.610;2024-02-16T03:55:09;1.87;;;1.70;;
16326;SDS011;34812;49.846;9.610;2024-02-16T04:00:12;5.50;;;1.93;;
16326;SDS011;34812;49.846;9.610;2024-02-16T04:05:15;4.07;;;2.10;;
16326;SDS011;34812;49.846;9.610;2024-02-16T04:10:18;2.40;;;2.17;;
16326;SDS011;34812;49.846;9.610;2024-02-16T04:15:20;11.90;;;2.70;;
16326;SDS011;34812;49.846;9.610;2024-02-16T04:20:22;5.83;;;2.73;;
16326;SDS011;34812;49.846;9.610;2024-02-16T04:25:26;3.03;;;2.63;;
16326;SDS011;34812;49.846;9.610;2024-02-16T04:30:28;2.53;;;2.00;;
16326;SDS011;34812;49.846;9.610;2024-02-16T04:35:30;2.90;;;2.20;;
16326;SDS011;34812;49.846;9.610;2024-02-16T04:40:34;3.03;;;2.03;;
16326;SDS011;34812;49.846;9.610;2024-02-16T04:45:37;4.07;;;2.23;;
16326;SDS011;34812;49.846;9.610;2024-02-16T04:50:40;2.47;;;2.27;;
16326;SDS011;34812;49.846;9.610;2024-02-16T04:55:43;4.43;;;2.27;;
16326;SDS011;34812;49.846;9.610;2024-02-16T05:00:45;2.67;;;2.47;;
16326;SDS011;34812;49.846;9.610;2024-02-16T05:05:47;2.63;;;2.30;;
16326;SDS011;34812;49.846;9.610;2024-02-16T05:10:51;3.20;;;2.27;;
16326;SDS011;34812;49.846;9.610;2024-02-16T05:15:53;12.87;;;2.97;;
16326;SDS011;34812;49.846;9.610;2024-02-16T05:20:55;3.17;;;2.50;;
16326;SDS011;34812;49.846;9.610;2024-02-16T05:25:59;2.97;;;2.63;;
16326;SDS011;34812;49.846;9.610;2024-02-16T05:31:03;4.70;;;2.30;;
16326;SDS011;34812;49.846;9.610;2024-02-16T05:36:06;2.83;;;1.80;;
16326;SDS011;34812;49.846;9.610;2024-02-16T05:41:10;2.30;;;1.93;;
16326;SDS011;34812;49.846;9.610;2024-02-16T05:46:12;5.17;;;2.00;;
16326;SDS011;34812;49.846;9.610;2024-02-16T05:51:14;3.10;;;1.83;;
16326;SDS011;34812;49.846;9.610;2024-02-16T05:56:18;2.83;;;2.10;;
16326;SDS011;34812;49.846;9.610;2024-02-16T06:01:20;3.60;;;2.50;;
16326;SDS011;34812;49.846;9.610;2024-02-16T06:06:22;4.27;;;2.27;;
16326;SDS011;34812;49.846;9.610;2024-02-16T06:11:26;2.10;;;1.90;;
16326;SDS011;34812;49.846;9.610;2024-02-16T06:16:28;2.93;;;2.53;;
16326;SDS011;34812;49.846;9.610;2024-02-16T06:21:30;4.33;;;2.63;;
16326;SDS011;34812;49.846;9.610;2024-02-16T06:26:33;5.47;;;3.00;;
16326;SDS011;34812;49.846;9.610;2024-02-16T06:31:35;7.77;;;3.63;;
16326;SDS011;34812;49.846;9.610;2024-02-16T06:36:37;4.47;;;2.80;;
16326;SDS011;34812;49.846;9.610;2024-02-16T06:41:41;6.40;;;2.63;;
16326;SDS011;34812;49.846;9.610;2024-02-16T06:46:44;6.30;;;2.80;;
16326;SDS011;34812;49.846;9.610;2024-02-16T06:51:46;5.67;;;3.53;;
16326;SDS011;34812;49.846;9.610;2024-02-16T06:56:49;5.43;;;3.50;;
16326;SDS011;34812;49.846;9.610;2024-02-16T07:01:53;13.17;;;4.97;;
16326;SDS011;34812;49.846;9.610;2024-02-16T07:06:55;5.20;;;3.33;;
16326;SDS011;34812;49.846;9.610;2024-02-16T07:11:58;4.00;;;3.00;;
16326;SDS011;34812;49.846;9.610;2024-02-16T07:17:00;3.00;;;2.37;;
16326;SDS011;34812;49.846;9.610;2024-02-16T07:22:02;4.30;;;3.80;;
16326;SDS011;34812;49.846;9.610;2024-02-16T07:27:08;4.70;;;3.80;;
16326;SDS011;34812;49.846;9.610;2024-02-16T07:32:10;3.07;;;2.70;;
16326;SDS011;34812;49.846;9.610;2024-02-16T07:37:13;3.43;;;3.00;;
16326;SDS011;34812;49.846;9.610;2024-02-16T07:42:17;5.57;;;4.20;;
16326;SDS011;34812;49.846;9.610;2024-02-16T07:47:20;7.10;;;4.83;;
16326;SDS011;34812;49.846;9.610;2024-02-16T07:52:22;2.73;;;2.50;;
16326;SDS011;34812;49.846;9.610;2024-02-16T07:57:26;3.50;;;2.80;;
16326;SDS011;34812;49.846;9.610;2024-02-16T08:02:28;2.73;;;2.37;;
16326;SDS011;34812;49.846;9.610;2024-02-16T08:07:30;8.87;;;2.67;;
16326;SDS011;34812;49.846;9.610;2024-02-16T08:12:33;3.20;;;2.17;;
16326;SDS011;34812;49.846;9.610;2024-02-16T08:17:37;6.20;;;2.10;;
16326;SDS011;34812;49.846;9.610;2024-02-16T08:22:39;4.17;;;2.20;;
16326;SDS011;34812;49.846;9.610;2024-02-16T08:27:42;2.83;;;2.30;;
16326;SDS011;34812;49.846;9.610;2024-02-16T08:32:44;5.23;;;3.80;;
16326;SDS011;34812;49.846;9.610;2024-02-16T08:37:46;7.50;;;2.57;;
16326;SDS011;34812;49.846;9.610;2024-02-16T08:42:50;4.37;;;2.40;;
16326;SDS011;34812;49.846;9.610;2024-02-16T08:47:52;4.57;;;2.77;;
16326;SDS011;34812;49.846;9.610;2024-02-16T08:52:55;6.43;;;2.67;;
16326;SDS011;34812;49.846;9.610;2024-02-16T08:57:59;3.27;;;2.83;;
16326;SDS011;34812;49.846;9.610;2024-02-16T09:03:01;3.80;;;2.87;;
16326;SDS011;34812;49.846;9.610;2024-02-16T09:08:03;4.13;;;2.80;;
16326;SDS011;34812;49.846;9.610;2024-02-16T09:13:07;5.80;;;2.70;;
16326;SDS011;34812;49.846;9.610;2024-02-16T09:18:10;5.00;;;2.80;;
16326;SDS011;34812;49.846;9.610;2024-02-16T09:23:12;3.30;;;2.73;;
16326;SDS011;34812;49.846;9.610;2024-02-16T09:28:15;4.37;;;3.17;;
16326;SDS011;34812;49.846;9.610;2024-02-16T09:33:19;2.53;;;2.17;;
16326;SDS011;34812;49.846;9.610;2024-02-16T09:38:21;2.57;;;1.73;;
16326;SDS011;34812;49.846;9.610;2024-02-16T09:43:26;6.97;;;2.50;;
16326;SDS011;34812;49.846;9.610;2024-02-16T09:48:28;8.07;;;2.40;;
16326;SDS011;34812;49.846;9.610;2024-02-16T09:53:30;5.17;;;2.30;;
16326;SDS011;34812;49.846;9.610;2024-02-16T09:58:33;3.67;;;2.53;;
16326;SDS011;34812;49.846;9.610;2024-02-16T10:03:36;8.13;;;2.87;;
16326;SDS011;34812;49.846;9.610;2024-02-16T10:08:47;5.03;;;2.90;;
16326;SDS011;34812;49.846;9.610;2024-02-16T10:13:57;8.23;;;3.03;;
16326;SDS011;34812;49.846;9.610;2024-02-16T10:19:04;5.17;;;3.20;;
16326;SDS011;34812;49.846;9.610;2024-02-16T10:24:07;3.90;;;1.80;;
16326;SDS011;34812;49.846;9.610;2024-02-16T10:29:11;3.97;;;2.40;;
16326;SDS011;34812;49.846;9.610;2024-02-16T10:34:14;2.17;;;1.70;;
16326;SDS011;34812;49.846;9.610;2024-02-16T10:51:28;3.38;;;2.08;;
16326;SDS011;34812;49.846;9.610;2024-02-16T10:56:32;8.18;;;2.15;;
16326;SDS011;34812;49.846;9.610;2024-02-16T11:01:37;2.58;;;2.00;;
16326;SDS011;34812;49.846;9.610;2024-02-16T11:06:47;4.97;;;2.17;;
16326;SDS011;34812;49.846;9.610;2024-02-16T11:11:51;3.90;;;2.17;;
16326;SDS011;34812;49.846;9.610;2024-02-16T11:16:53;3.20;;;2.05;;
16326;SDS011;34812;49.846;9.610;2024-02-16T11:21:58;7.05;;;1.55;;
16326;SDS011;34812;49.846;9.610;2024-02-16T11:27:01;1.95;;;1.30;;
16326;SDS011;34812;49.846;9.610;2024-02-16T11:32:04;3.10;;;1.80;;
16326;SDS011;34812;49.846;9.610;2024-02-16T11:37:08;3.13;;;1.88;;
16326;SDS011;34812;49.846;9.610;2024-02-16T11:42:11;3.40;;;1.25;;
16326;SDS011;34812;49.846;9.610;2024-02-16T11:47:18;3.38;;;1.30;;
16326;SDS011;34812;49.846;9.610;2024-02-16T11:52:26;3.13;;;1.92;;
16326;SDS011;34812;49.846;9.610;2024-02-16T11:57:28;2.80;;;1.33;;
16326;SDS011;34812;49.846;9.610;2024-02-16T12:02:31;3.10;;;1.50;;
16326;SDS011;34812;49.846;9.610;2024-02-16T12:07:36;1.30;;;1.20;;
16326;SDS011;34812;49.846;9.610;2024-02-16T12:12:39;4.75;;;1.60;;
16326;SDS011;34812;49.846;9.610;2024-02-16T12:17:42;2.55;;;1.40;;
16326;SDS011;34812;49.846;9.610;2024-02-16T12:22:45;3.60;;;1.40;;
16326;SDS011;34812;49.846;9.610;2024-02-16T12:27:47;2.63;;;1.63;;
16326;SDS011;34812;49.846;9.610;2024-02-16T12:32:50;2.08;;;1.13;;
16326;SDS011;34812;49.846;9.610;2024-02-16T12:37:54;2.53;;;1.23;;
16326;SDS011;34812;49.846;9.610;2024-02-16T12:42:56;4.47;;;1.02;;
16326;SDS011;34812;49.846;9.610;2024-02-16T12:47:59;2.28;;;1.40;;
16326;SDS011;34812;49.846;9.610;2024-02-16T12:53:02;3.88;;;1.42;;
16326;SDS011;34812;49.846;9.610;2024-02-16T12:58:04;1.92;;;1.17;;
16326;SDS011;34812;49.846;9.610;2024-02-16T13:03:07;2.85;;;1.55;;
16326;SDS011;34812;49.846;9.610;2024-02-16T13:08:10;2.28;;;1.13;;
16326;SDS011;34812;49.846;9.610;2024-02-16T13:13:12;2.30;;;1.70;;
16326;SDS011;34812;49.846;9.610;2024-02-16T13:18:14;7.88;;;2.60;;
16326;SDS011;34812;49.846;9.610;2024-02-16T13:23:18;6.55;;;2.58;;
16326;SDS011;34812;49.846;9.610;2024-02-16T13:28:20;5.03;;;1.80;;
16326;SDS011;34812;49.846;9.610;2024-02-16T13:33:22;4.53;;;2.35;;
16326;SDS011;34812;49.846;9.610;2024-02-16T13:38:26;4.13;;;1.05;;
16326;SDS011;34812;49.846;9.610;2024-02-16T13:43:28;2.58;;;0.93;;
16326;SDS011;34812;49.846;9.610;2024-02-16T13:48:30;1.60;;;1.30;;
16326;SDS011;34812;49.846;9.610;2024-02-16T13:53:34;2.97;;;1.10;;
16326;SDS011;34812;49.846;9.610;2024-02-16T13:58:36;2.97;;;1.20;;
16326;SDS011;34812;49.846;9.610;2024-02-16T14:03:40;1.95;;;0.80;;
16326;SDS011;34812;49.846;9.610;2024-02-16T14:08:43;4.55;;;1.10;;
16326;SDS011;34812;49.846;9.610;2024-02-16T14:13:47;1.88;;;0.90;;
16326;SDS011;34812;49.846;9.610;2024-02-16T14:18:50;4.45;;;1.38;;
16326;SDS011;34812;49.846;9.610;2024-02-16T14:23:53;1.85;;;1.20;;
16326;SDS011;34812;49.846;9.610;2024-02-16T14:28:55;3.17;;;1.00;;
16326;SDS011;34812;49.846;9.610;2024-02-16T14:33:58;5.95;;;1.30;;
16326;SDS011;34812;49.846;9.610;2024-02-16T14:39:01;3.13;;;1.42;;
16326;SDS011;34812;49.846;9.610;2024-02-16T14:44:04;3.10;;;0.80;;
16326;SDS011;34812;49.846;9.610;2024-02-16T14:49:06;5.38;;;1.00;;
16326;SDS011;34812;49.846;9.610;2024-02-16T14:54:09;3.13;;;1.05;;
16326;SDS011;34812;49.846;9.610;2024-02-16T14:59:12;3.78;;;1.25;;
16326;SDS011;34812;49.846;9.610;2024-02-16T15:04:14;2.97;;;1.15;;
16326;SDS011;34812;49.846;9.610;2024-02-16T15:09:18;1.60;;;0.80;;
16326;SDS011;34812;49.846;9.610;2024-02-16T15:14:20;2.70;;;1.00;;
16326;SDS011;34812;49.846;9.610;2024-02-16T15:19:22;3.53;;;1.38;;
16326;SDS011;34812;49.846;9.610;2024-02-16T15:24:26;3.67;;;1.30;;
16326;SDS011;34812;49.846;9.610;2024-02-16T15:29:28;7.03;;;1.10;;
16326;SDS011;34812;49.846;9.610;2024-02-16T15:34:30;3.25;;;1.02;;
16326;SDS011;34812;49.846;9.610;2024-02-16T15:39:33;4.47;;;1.27;;
16326;SDS011;34812;49.846;9.610;2024-02-16T15:44:35;5.53;;;1.40;;
16326;SDS011;34812;49.846;9.610;2024-02-16T15:49:37;2.25;;;0.80;;
16326;SDS011;34812;49.846;9.610;2024-02-16T15:54:41;1.60;;;1.00;;
16326;SDS011;34812;49.846;9.610;2024-02-16T15:59:43;3.90;;;1.27;;
16326;SDS011;34812;49.846;9.610;2024-02-16T16:04:45;1.63;;;0.90;;
16326;SDS011;34812;49.846;9.610;2024-02-16T16:09:50;1.55;;;0.90;;
16326;SDS011;34812;49.846;9.610;2024-02-16T16:14:55;3.55;;;1.10;;
16326;SDS011;34812;49.846;9.610;2024-02-16T16:19:57;1.40;;;1.13;;
16326;SDS011;34812;49.846;9.610;2024-02-16T16:25:02;9.88;;;1.20;;
16326;SDS011;34812;49.846;9.610;2024-02-16T16:30:05;2.58;;;1.65;;
16326;SDS011;34812;49.846;9.610;2024-02-16T16:35:07;3.22;;;1.63;;
16326;SDS011;34812;49.846;9.610;2024-02-16T16:40:12;5.65;;;1.73;;
16326;SDS011;34812;49.846;9.610;2024-02-16T16:45:14;2.33;;;1.42;;
16326;SDS011;34812;49.846;9.610;2024-02-16T16:50:16;3.13;;;1.48;;
16326;SDS011;34812;49.846;9.610;2024-02-16T16:55:21;3.03;;;1.70;;
16326;SDS011;34812;49.846;9.610;2024-02-16T17:00:23;1.58;;;1.40;;
16326;SDS011;34812;49.846;9.610;2024-02-16T17:05:25;3.35;;;1.10;;
16326;SDS011;34812;49.846;9.610;2024-02-16T17:10:29;6.72;;;1.58;;
16326;SDS011;34812;49.846;9.610;2024-02-16T17:15:31;3.42;;;0.95;;
16326;SDS011;34812;49.846;9.610;2024-02-16T17:20:33;4.10;;;1.30;;
16326;SDS011;34812;49.846;9.610;2024-02-16T17:25:41;2.13;;;1.45;;
16326;SDS011;34812;49.846;9.610;2024-02-16T17:30:43;1.27;;;1.05;;
16326;SDS011;34812;49.846;9.610;2024-02-16T17:35:46;3.00;;;1.13;;
16326;SDS011;34812;49.846;9.610;2024-02-16T17:40:50;4.43;;;1.50;;
16326;SDS011;34812;49.846;9.610;2024-02-16T17:45:52;2.03;;;1.35;;
16326;SDS011;34812;49.846;9.610;2024-02-16T17:50:54;1.38;;;1.02;;
16326;SDS011;34812;49.846;9.610;2024-02-16T17:55:57;1.92;;;1.55;;
16326;SDS011;34812;49.846;9.610;2024-02-16T18:00:59;4.07;;;1.85;;
16326;SDS011;34812;49.846;9.610;2024-02-16T18:06:02;5.82;;;1.77;;
16326;SDS011;34812;49.846;9.610;2024-02-16T18:11:05;2.78;;;1.92;;
16326;SDS011;34812;49.846;9.610;2024-02-16T18:16:07;5.80;;;1.67;;
16326;SDS011;34812;49.846;9.610;2024-02-16T18:21:09;3.38;;;1.20;;
16326;SDS011;34812;49.846;9.610;2024-02-16T18:26:14;1.40;;;1.05;;
16326;SDS011;34812;49.846;9.610;2024-02-16T18:31:16;1.17;;;1.08;;
16326;SDS011;34812;49.846;9.610;2024-02-16T18:36:18;7.05;;;1.15;;
16326;SDS011;34812;49.846;9.610;2024-02-16T18:41:21;1.67;;;1.13;;
16326;SDS011;34812;49.846;9.610;2024-02-16T18:46:23;3.95;;;1.17;;
16326;SDS011;34812;49.846;9.610;2024-02-16T18:51:25;2.53;;;1.27;;
16326;SDS011;34812;49.846;9.610;2024-02-16T18:56:29;3.90;;;1.80;;
16326;SDS011;34812;49.846;9.610;2024-02-16T19:01:31;2.80;;;1.60;;
16326;SDS011;34812;49.846;9.610;2024-02-16T19:06:34;3.50;;;1.30;;
16326;SDS011;34812;49.846;9.610;2024-02-16T19:11:38;2.50;;;1.60;;
16326;SDS011;34812;49.846;9.610;2024-02-16T19:16:40;5.00;;;1.73;;
16326;SDS011;34812;49.846;9.610;2024-02-16T19:21:42;1.50;;;1.30;;
16326;SDS011;34812;49.846;9.610;2024-02-16T19:26:47;6.53;;;2.33;;
16326;SDS011;34812;49.846;9.610;2024-02-16T19:31:49;13.50;;;7.63;;
16326;SDS011;34812;49.846;9.610;2024-02-16T19:36:51;13.67;;;7.37;;
16326;SDS011;34812;49.846;9.610;2024-02-16T19:41:54;5.03;;;3.33;;
16326;SDS011;34812;49.846;9.610;2024-02-16T19:46:58;14.43;;;6.87;;
16326;SDS011;34812;49.846;9.610;2024-02-16T19:52:00;1.90;;;1.40;;
16326;SDS011;34812;49.846;9.610;2024-02-16T19:57:04;11.37;;;4.20;;
16326;SDS011;34812;49.846;9.610;2024-02-16T20:02:06;2.60;;;1.93;;
16326;SDS011;34812;49.846;9.610;2024-02-16T20:07:10;3.73;;;1.37;;
16326;SDS011;34812;49.846;9.610;2024-02-16T20:12:13;8.53;;;5.37;;
16326;SDS011;34812;49.846;9.610;2024-02-16T20:17:15;3.87;;;3.30;;
16326;SDS011;34812;49.846;9.610;2024-02-16T20:22:17;5.03;;;4.30;;
16326;SDS011;34812;49.846;9.610;2024-02-16T20:27:21;6.30;;;2.30;;
16326;SDS011;34812;49.846;9.610;2024-02-16T20:32:23;2.63;;;1.67;;
16326;SDS011;34812;49.846;9.610;2024-02-16T20:37:26;3.33;;;1.83;;
16326;SDS011;34812;49.846;9.610;2024-02-16T20:42:29;4.43;;;1.50;;
16326;SDS011;34812;49.846;9.610;2024-02-16T20:47:31;4.80;;;1.87;;
16326;SDS011;34812;49.846;9.610;2024-02-16T20:52:34;2.83;;;1.70;;
16326;SDS011;34812;49.846;9.610;2024-02-16T20:57:37;4.53;;;1.50;;
16326;SDS011;34812;49.846;9.610;2024-02-16T21:02:39;1.73;;;1.30;;
16326;SDS011;34812;49.846;9.610;2024-02-16T21:07:41;2.97;;;1.80;;
16326;SDS011;34812;49.846;9.610;2024-02-16T21:12:45;1.70;;;1.60;;
16326;SDS011;34812;49.846;9.610;2024-02-16T21:17:47;2.10;;;1.70;;
16326;SDS011;34812;49.846;9.610;2024-02-16T21:22:49;3.23;;;1.70;;
16326;SDS011;34812;49.846;9.610;2024-02-16T21:27:52;1.47;;;1.23;;
16326;SDS011;34812;49.846;9.610;2024-02-16T21:32:54;1.97;;;1.77;;
16326;SDS011;34812;49.846;9.610;2024-02-16T21:37:57;2.63;;;1.77;;
16326;SDS011;34812;49.846;9.610;2024-02-16T21:43:01;1.40;;;1.23;;
16326;SDS011;34812;49.846;9.610;2024-02-16T21:48:03;2.63;;;1.07;;
16326;SDS011;34812;49.846;9.610;2024-02-16T21:53:07;2.33;;;1.60;;
16326;SDS011;34812;49.846;9.610;2024-02-16T21:58:14;2.33;;;1.73;;
16326;SDS011;34812;49.846;9.610;2024-02-16T22:03:17;1.30;;;1.20;;
16326;SDS011;34812;49.846;9.610;2024-02-16T22:08:19;5.87;;;1.43;;
16326;SDS011;34812;49.846;9.610;2024-02-16T22:13:22;2.17;;;1.83;;
16326;SDS011;34812;49.846;9.610;2024-02-16T22:18:24;2.90;;;1.90;;
16326;SDS011;34812;49.846;9.610;2024-02-16T22:23:26;3.13;;;1.87;;
16326;SDS011;34812;49.846;9.610;2024-02-16T22:28:30;4.30;;;2.13;;
16326;SDS011;34812;49.846;9.610;2024-02-16T22:33:32;4.13;;;2.93;;
16326;SDS011;34812;49.846;9.610;2024-02-16T22:38:34;1.87;;;1.50;;
16326;SDS011;34812;49.846;9.610;2024-02-16T22:43:37;4.73;;;2.30;;
16326;SDS011;34812;49.846;9.610;2024-02-16T22:48:39;3.27;;;2.00;;
16326;SDS011;34812;49.846;9.610;2024-02-16T22:53:42;1.90;;;1.73;;
16326;SDS011;34812;49.846;9.610;2024-02-16T22:58:45;2.83;;;1.77;;
16326;SDS011;34812;49.846;9.610;2024-02-16T23:03:47;2.30;;;1.70;;
16326;SDS011;34812;49.846;9.610;2024-02-16T23:08:49;4.00;;;1.50;;
16326;SDS011;34812;49.846;9.610;2024-02-16T23:13:53;4.33;;;2.00;;
16326;SDS011;34812;49.846;9.610;2024-02-16T23:18:55;3.90;;;1.63;;
16326;SDS011;34812;49.846;9.610;2024-02-16T23:23:57;1.20;;;1.07;;
16326;SDS011;34812;49.846;9.610;2024-02-16T23:29:01;0.97;;;0.87;;
16326;SDS011;34812;49.846;9.610;2024-02-16T23:34:03;2.37;;;1.60;;
16326;SDS011;34812;49.846;9.610;2024-02-16T23:39:05;2.83;;;0.97;;
16326;SDS011;34812;49.846;9.610;2024-02-16T23:44:09;5.87;;;3.20;;
16326;SDS011;34812;49.846;9.610;2024-02-16T23:49:11;1.70;;;1.40;;
16326;SDS011;34812;49.846;9.610;2024-02-16T23:54:13;1.50;;;1.10;;
16326;SDS011;34812;49.846;9.610;2024-02-16T23:59:16;0.90;;;0.73;;
